M I D A S
Marine Information and Data Acquisition System
Tripno 1566 of the Zeeleeuw from 2008-09-15 08:00:00 to 2008-09-15 17:00:00
Back to CruiseResearch ActivitiesStationsMapUnderway DataData graphs

EquipmentUnitsComment
TimeDGPSUTC
LatitudeDGPSDM.mWGS84
LongitudeDGPSDM.mWGS84
HeadingGyrodeg 
SOGDGPSknotsSpeed over ground
COGDGPSdegCourse over ground
DepthEcho soundermeters200 kHz
Missing or incorrect values are displayed as -999
Navigation data collected by the RV Zeeleeuw from 2008-09-15 08:00:00 to 2008-09-15 17:00:00
Time Latitude Longitude Heading SOG COG Depth
2008-09-15 08:02:10 51°21.802 2°47.743 338.1 11.69 331 -999
2008-09-15 08:04:10 51°22.14 2°47.439 338.1 11.5 334 -999
2008-09-15 08:06:10 51°22.488 2°47.202 346.1 11.19 337 -999
2008-09-15 08:08:10 51°22.83 2°46.956 345.3 11.4 336 -999
2008-09-15 08:10:10 51°23.172 2°46.7 343.6 11.4 335 -999
2008-09-15 08:12:10 51°23.517 2°46.454 344.1 11.3 336 -999
2008-09-15 08:14:10 51°23.868 2°46.193 344.3 11.59 335 -999
2008-09-15 08:16:10 51°24.213 2°46.076 14.4 10.19 14 -999
2008-09-15 08:18:10 51°24.461 2°46.407 45.7 9.9 46 -999
2008-09-15 08:20:10 51°24.703 2°46.77 45 10 41 -999
2008-09-15 08:22:10 51°24.951 2°47.133 43.2 10.19 45 -999
2008-09-15 08:24:10 51°25.151 2°47.567 55 10.19 55 -999
2008-09-15 08:26:10 51°25.315 2°48.035 59.8 10.19 60 -999
2008-09-15 08:28:10 51°25.485 2°48.513 58.5 10.19 60 -999
2008-09-15 08:30:10 51°25.65 2°48.987 58.5 10 60 -999
2008-09-15 08:32:10 51°25.814 2°49.457 59.3 10.19 60 -999
2008-09-15 08:34:10 51°25.978 2°49.932 60.3 10.3 63 -999
2008-09-15 08:36:10 51°26.146 2°50.406 59.6 10.3 61 -999
2008-09-15 08:38:10 51°26.314 2°50.885 59 10.4 59 -999
2008-09-15 08:40:10 51°26.503 2°51.347 56.3 10.4 57 -999
2008-09-15 08:42:10 51°26.695 2°51.809 54.7 10.5 57 -999
2008-09-15 08:44:10 51°26.886 2°52.276 55.7 10.59 57 -999
2008-09-15 08:46:10 51°27.08 2°52.741 57.2 10.5 58 -999
2008-09-15 08:48:10 51°27.266 2°53.205 54.2 10.3 55 -999
2008-09-15 08:50:10 51°27.433 2°53.684 59.7 10.3 63 -999
2008-09-15 08:52:10 51°27.591 2°54.167 61.2 10.19 63 -999
2008-09-15 08:54:10 51°27.762 2°54.637 55.7 10.3 60 -999
2008-09-15 08:56:10 51°27.933 2°55.109 57.2 10.19 61 -999
2008-09-15 08:58:10 51°28.116 2°55.572 56.6 10.19 57 -999
2008-09-15 09:00:10 51°28.247 2°55.854 28.3 2.29 10 -999
2008-09-15 09:02:10 51°28.271 2°55.81 17.1 1.3 267 -999
2008-09-15 09:04:10 51°28.305 2°55.842 43.6 1.3 34 -999
2008-09-15 09:06:10 51°28.355 2°55.94 59.7 2.29 69 -999
2008-09-15 09:08:10 51°28.422 2°56.016 31.1 2.79 21 -999
2008-09-15 09:10:10 51°28.492 2°56.1 40.7 2.6 36 -999
2008-09-15 09:12:10 51°28.556 2°56.201 45.6 2.79 43 -999
2008-09-15 09:14:10 51°28.611 2°56.313 48.7 2.7 52 -999
2008-09-15 09:16:10 51°28.663 2°56.44 52.7 2.89 56 -999
2008-09-15 09:18:10 51°28.708 2°56.562 53.3 2.6 57 -999
2008-09-15 09:20:10 51°28.756 2°56.682 54.7 2.7 60 -999
2008-09-15 09:22:10 51°28.804 2°56.801 51.6 2.6 53 -999
2008-09-15 09:24:10 51°28.846 2°56.926 61.6 2.6 72 -999
2008-09-15 09:26:10 51°28.812 2°57.012 132.6 2.5 174 -999
2008-09-15 09:28:10 51°28.74 2°56.979 144.6 2.2 206 -999
2008-09-15 09:30:10 51°28.684 2°56.928 137.3 1.89 215 -999
2008-09-15 09:32:10 51°28.681 2°57.011 45.2 5.5 51 -999
2008-09-15 09:34:10 51°28.817 2°57.455 62.8 10.3 65 -999
2008-09-15 09:36:10 51°28.963 2°57.968 62.1 10.8 66 -999
2008-09-15 09:38:10 51°29.108 2°58.49 64 10.69 66 -999
2008-09-15 09:40:10 51°29.258 2°59.01 62.5 10.59 66 -999
2008-09-15 09:42:10 51°29.404 2°59.522 62.8 10.5 64 -999
2008-09-15 09:44:10 51°29.552 3°0.039 63.3 10.69 66 -999
2008-09-15 09:46:10 51°29.704 3°0.554 61.8 10.69 63 -999
2008-09-15 09:48:10 51°29.897 3°1.017 47.6 10.5 46 -999
2008-09-15 09:50:10 51°30.132 3°1.437 48 10.5 46 -999
2008-09-15 09:52:10 51°30.367 3°1.854 47.1 10.59 48 -999
2008-09-15 09:54:10 51°30.598 3°2.28 49.1 10.59 50 -999
2008-09-15 09:56:10 51°30.831 3°2.707 47.1 10.59 47 -999
2008-09-15 09:58:10 51°31.06 3°3.144 52.5 10.8 53 -999
2008-09-15 10:00:10 51°31.28 3°3.597 52.2 10.69 54 -999
2008-09-15 10:02:10 51°31.502 3°4.049 52.2 10.9 54 -999
2008-09-15 10:04:10 51°31.723 3°4.509 52.2 11 51 -999
2008-09-15 10:06:10 51°32.012 3°4.802 11.5 10.9 2 -999
2008-09-15 10:08:10 51°32.36 3°4.556 341.8 11.5 335 -999
2008-09-15 10:10:10 51°32.692 3°4.229 329.6 11.8 323 -999
2008-09-15 10:12:10 51°32.98 3°3.797 320.3 11.59 315 -999
2008-09-15 10:14:10 51°33.11 3°3.251 270.8 12.09 262 -999
2008-09-15 10:16:10 51°32.926 3°2.637 242.6 12.69 240 -999
2008-09-15 10:18:10 51°32.714 3°2.048 244.5 12.9 239 -999
2008-09-15 10:20:10 51°32.509 3°1.453 244.1 12.8 242 -999
2008-09-15 10:22:10 51°32.282 3°0.879 231 12.69 223 -999
2008-09-15 10:24:10 51°31.927 3°0.484 215.4 12.9 214 -999
2008-09-15 10:26:10 51°31.575 3°0.082 217.9 12.8 214 -999
2008-09-15 10:28:10 51°31.226 2°59.679 216.6 12.9 220 -999
2008-09-15 10:30:10 51°30.878 2°59.272 217.4 12.69 218 -999
2008-09-15 10:32:10 51°30.595 2°58.764 230 12.9 231 -999
2008-09-15 10:34:10 51°30.319 2°58.243 230.4 12.9 229 -999
2008-09-15 10:36:10 51°30.16 2°57.638 264.6 12.4 262 -999
2008-09-15 10:38:10 51°30.112 2°56.988 267.8 12.4 266 -999
2008-09-15 10:40:10 51°30.087 2°56.337 270.1 12.19 266 -999
2008-09-15 10:42:10 51°30.065 2°55.695 267.8 12 267 -999
2008-09-15 10:44:10 51°30.048 2°55.059 267.8 11.9 261 -999
2008-09-15 10:46:10 51°29.949 2°54.444 255 11.9 251 -999
2008-09-15 10:48:10 51°29.844 2°53.838 255.3 11.69 247 -999
2008-09-15 10:50:10 51°29.654 2°53.288 241.4 11.9 243 -999
2008-09-15 10:52:10 51°29.465 2°52.739 240.3 11.8 244 -999
2008-09-15 10:54:10 51°29.281 2°52.19 242.1 11.8 244 -999
2008-09-15 10:56:10 51°29.098 2°51.641 243 11.8 239 -999
2008-09-15 10:58:10 51°28.916 2°51.092 242 11.59 243 -999
2008-09-15 11:00:10 51°28.738 2°50.549 243.3 11.5 243 -999
2008-09-15 11:02:10 51°28.556 2°50.008 240.3 11.5 245 -999
2008-09-15 11:04:10 51°28.378 2°49.465 241.1 11.4 241 -999
2008-09-15 11:06:10 51°28.199 2°48.929 242.9 11.3 238 -999
2008-09-15 11:08:10 51°28.026 2°48.394 242 11.3 246 -999
2008-09-15 11:10:10 51°27.852 2°47.856 243.5 11.59 242 -999
2008-09-15 11:12:10 51°27.682 2°47.31 243.5 11.3 241 -999
2008-09-15 11:14:10 51°27.513 2°46.77 242.1 11.4 245 -999
2008-09-15 11:16:10 51°27.343 2°46.233 242 11.4 243 -999
2008-09-15 11:18:10 51°27.173 2°45.69 243.9 11.5 242 -999
2008-09-15 11:20:10 51°27.009 2°45.157 242.3 11.09 248 -999
2008-09-15 11:22:10 51°26.847 2°44.624 243 11 245 -999
2008-09-15 11:24:10 51°26.681 2°44.102 242 11.19 240 -999
2008-09-15 11:26:10 51°26.627 2°43.538 272.1 11.19 282 -999
2008-09-15 11:28:10 51°26.826 2°43.045 316.3 11.59 324 -999
2008-09-15 11:30:10 51°27.198 2°42.816 338.8 12.09 345 -999
2008-09-15 11:32:10 51°27.601 2°42.947 20.8 12.8 26 -999
2008-09-15 11:34:10 51°27.897 2°43.448 48.5 13.19 49 -999
2008-09-15 11:36:10 51°28.174 2°43.992 50.1 13.19 51 -999
2008-09-15 11:38:10 51°28.455 2°44.531 50.8 13.19 53 -999
2008-09-15 11:40:10 51°28.728 2°45.091 52 13.5 53 -999
2008-09-15 11:42:10 51°29.004 2°45.654 51.6 13.4 51 -999
2008-09-15 11:44:10 51°29.278 2°46.22 53.6 13.59 56 -999
2008-09-15 11:46:10 51°29.532 2°46.811 55.1 13.5 55 -999
2008-09-15 11:48:10 51°29.74 2°47.284 54.2 7.59 56 -999
2008-09-15 11:50:10 51°29.813 2°47.428 43.8 2.5 47 -999
2008-09-15 11:52:10 51°29.926 2°47.606 41.5 5.09 43 -999
2008-09-15 11:54:10 51°30.02 2°47.761 52.7 3.89 53 -999
2008-09-15 11:56:10 51°30.074 2°47.946 72.5 3.89 65 -999
2008-09-15 11:58:10 51°30.128 2°48.14 71.4 4 64 -999
2008-09-15 13:00:10 51°35.504 2°59.843 293.3 11.5 302 -999
2008-09-15 13:02:10 51°35.581 2°59.281 259.1 10.8 265 -999
2008-09-15 13:04:10 51°35.507 2°58.729 247.9 10.3 249 -999
2008-09-15 13:06:10 51°35.337 2°58.247 237.1 10.19 241 -999
2008-09-15 13:08:10 51°35.18 2°57.752 240.1 10.4 244 -999
2008-09-15 13:10:10 51°35.03 2°57.248 239.8 10.69 243 -999
2008-09-15 13:12:10 51°34.884 2°56.742 242.1 10.3 244 -999
2008-09-15 13:14:10 51°34.708 2°56.262 237.3 10.5 237 -999
2008-09-15 13:16:10 51°34.54 2°55.767 237.3 10.5 244 -999
2008-09-15 13:18:10 51°34.371 2°55.278 238 10.5 242 -999
2008-09-15 13:20:10 51°34.204 2°54.783 238.6 10.59 244 -999
2008-09-15 13:22:10 51°34.036 2°54.289 238 10.59 241 -999
2008-09-15 13:24:10 51°33.867 2°53.801 238.1 10.69 244 -999
2008-09-15 13:26:10 51°33.699 2°53.315 238.5 10.4 247 -999
2008-09-15 13:28:10 51°33.532 2°52.822 238.5 10.59 243 -999
2008-09-15 13:30:10 51°33.364 2°52.332 238.6 10.5 237 -999
2008-09-15 13:32:10 51°33.171 2°51.869 231.9 10.4 234 -999
2008-09-15 13:34:10 51°32.976 2°51.408 232.3 10.3 237 -999
2008-09-15 13:36:10 51°32.783 2°50.946 232.5 10.5 239 -999
2008-09-15 13:38:10 51°32.584 2°50.486 232.5 10.59 238 -999
2008-09-15 13:40:10 51°32.39 2°50.021 232.6 10.59 237 -999
2008-09-15 13:42:10 51°32.199 2°49.551 233.8 10.5 235 -999
2008-09-15 13:44:10 51°32.001 2°49.085 233 10.59 236 -999
2008-09-15 13:46:10 51°31.817 2°48.608 238.5 10.5 239 -999
2008-09-15 13:48:10 51°31.643 2°48.109 238.6 10.69 240 -999
2008-09-15 13:50:10 51°31.472 2°47.615 238.5 10.59 242 -999
2008-09-15 13:52:10 51°31.301 2°47.12 238.1 10.59 246 -999
2008-09-15 13:54:10 51°31.132 2°46.632 239.4 10.3 241 -999
2008-09-15 13:56:10 51°30.967 2°46.144 237.5 10.5 241 -999
2008-09-15 13:58:10 51°30.802 2°45.648 237 10.4 241 -999
2008-09-15 14:00:10 51°30.639 2°45.161 239.3 10.4 244 -999
2008-09-15 14:02:10 51°30.481 2°44.674 239.4 10.3 242 -999
2008-09-15 14:04:10 51°30.316 2°44.178 237.1 10.5 240 -999
2008-09-15 14:06:10 51°30.151 2°43.682 238.6 10.59 241 -999
2008-09-15 14:08:10 51°29.995 2°43.188 239 10.59 243 -999
2008-09-15 14:10:10 51°29.833 2°42.689 239.5 10.8 240 -999
2008-09-15 14:12:10 51°29.674 2°42.183 238 10.4 238 -999
2008-09-15 14:14:10 51°29.516 2°41.686 238.9 10.3 242 -999
2008-09-15 14:16:10 51°29.358 2°41.189 237.3 10.69 246 -999
2008-09-15 14:18:10 51°29.203 2°40.694 239.8 10.5 241 -999
2008-09-15 14:20:10 51°29.039 2°40.21 233.9 10.4 237 -999
2008-09-15 14:22:10 51°28.838 2°39.759 230 10.59 233 -999
2008-09-15 14:24:10 51°28.553 2°39.59 172 10.8 166 -999
2008-09-15 14:26:10 51°28.201 2°39.702 174 10.9 170 -999
2008-09-15 14:28:10 51°27.864 2°39.919 162 11 156 -999
2008-09-15 14:30:10 51°27.526 2°40.158 161 11.09 156 -999
2008-09-15 14:32:10 51°27.189 2°40.407 162.5 11.09 156 -999
2008-09-15 14:34:10 51°26.854 2°40.643 161.6 11.3 156 -999
2008-09-15 14:36:10 51°26.517 2°40.912 158.4 11.3 159 -999
2008-09-15 14:38:10 51°26.177 2°41.177 158.3 11.3 158 -999
2008-09-15 14:40:10 51°25.836 2°41.439 157.4 11.4 152 -999
2008-09-15 14:42:10 51°25.501 2°41.71 157.5 11.4 152 -999
2008-09-15 14:44:10 51°25.169 2°41.984 156.1 11.09 152 -999
2008-09-15 14:46:10 51°24.849 2°42.289 155.1 11.4 148 -999
2008-09-15 14:48:10 51°24.521 2°42.596 153.4 11.19 150 -999
2008-09-15 14:50:10 51°24.186 2°42.866 156.6 11.4 153 -999
2008-09-15 14:52:10 51°23.841 2°43.143 156.1 11.59 152 -999
2008-09-15 14:54:10 51°23.499 2°43.425 156.3 11.5 154 -999
2008-09-15 14:56:10 51°23.155 2°43.704 156 11.59 151 -999
2008-09-15 14:58:10 51°22.785 2°43.821 176 11.5 175 -999
2008-09-15 15:00:10 51°22.408 2°43.879 171.5 11.4 171 -999
2008-09-15 15:02:10 51°22.039 2°43.994 170.8 11.4 170 -999
2008-09-15 15:04:10 51°21.691 2°44.256 155.9 11.59 153 -999
2008-09-15 15:06:10 51°21.377 2°44.614 143.4 11.8 138 -999
2008-09-15 15:08:10 51°21.067 2°44.996 144.4 11.8 142 -999
2008-09-15 15:10:10 51°20.753 2°45.367 145.8 11.9 142 -999
2008-09-15 15:12:10 51°20.445 2°45.752 143.5 11.69 142 -999
2008-09-15 15:14:10 51°20.131 2°46.118 144.6 11.9 146 -999
2008-09-15 15:16:10 51°19.81 2°46.465 146.5 11.8 149 -999
2008-09-15 15:18:10 51°19.488 2°46.812 147.8 11.69 145 -999
2008-09-15 15:20:10 51°19.166 2°47.157 146.8 11.69 144 -999
2008-09-15 15:22:10 51°18.842 2°47.501 145.8 11.59 146 -999
2008-09-15 15:24:10 51°18.521 2°47.842 144.9 11.69 147 -999
2008-09-15 15:26:10 51°18.203 2°48.177 147.6 11.5 143 -999
2008-09-15 15:28:10 51°17.881 2°48.501 146 11.5 146 -999
2008-09-15 15:30:10 51°17.559 2°48.833 147.5 11.8 147 -999
2008-09-15 15:32:10 51°17.237 2°49.171 144.6 11.59 147 -999
2008-09-15 15:34:10 51°16.915 2°49.505 147 11.59 146 -999
2008-09-15 15:36:10 51°16.59 2°49.842 146.1 11.8 149 -999
2008-09-15 15:38:10 51°16.261 2°50.17 145.5 11.59 147 -999
2008-09-15 15:40:10 51°15.971 2°50.578 132.8 11.59 133 -999
2008-09-15 15:42:10 51°15.728 2°51.066 124.5 11.9 126 -999
2008-09-15 15:44:10 51°15.545 2°51.616 116.7 11.59 118 -999
2008-09-15 15:46:10 51°15.36 2°52.16 117.7 11.69 118 -999
2008-09-15 15:48:10 51°15.174 2°52.701 116.7 11.59 122 -999
2008-09-15 15:50:10 51°14.985 2°53.234 116.9 11.59 121 -999
2008-09-15 15:52:10 51°14.804 2°53.778 117.2 11.69 119 -999
2008-09-15 15:54:10 51°14.611 2°54.315 118.2 11.4 120 -999
2008-09-15 15:56:10 51°14.417 2°54.83 118.5 11.4 122 -999
2008-09-15 15:58:10 51°14.22 2°55.298 132.1 10 137 -999